Time;durP1;ratioP1;P1;durP2;ratioP2;P2;SDS_P1;SDS_P2;PMS_P1;PMS_P2;Temp;Humidity;BMP_temperature;BMP_pressure;BME280_temperature;BME280_humidity;BME280_pressure;Samples;Min_cycle;Max_cycle;Signal;HPM_P1;HPM_P2
2022/05/14 00:00:25;;;;;;;3.22;1.40;;;16.50;82.10;;;;;;5107150;28;20302;-34
2022/05/14 00:02:52;;;;;;;3.33;1.50;;;16.50;82.20;;;;;;5071809;28;20207;-34
2022/05/14 00:05:20;;;;;;;5.60;1.90;;;16.50;82.20;;;;;;5065983;28;20992;-34
2022/05/14 00:07:50;;;;;;;4.78;1.30;;;16.40;82.10;;;;;;5073348;28;20780;-34
2022/05/14 00:10:22;;;;;;;2.58;1.15;;;16.40;82.00;;;;;;5097532;28;20696;-34
2022/05/14 00:13:04;;;;;;;4.30;1.13;;;16.30;82.00;;;;;;5061752;28;20572;-34
2022/05/14 00:15:41;;;;;;;5.63;1.50;;;16.30;82.00;;;;;;5071529;28;20227;-34
2022/05/14 00:18:10;;;;;;;3.92;1.58;;;16.30;82.90;;;;;;5056835;28;20566;-34
2022/05/14 00:20:38;;;;;;;3.00;1.42;;;16.20;82.20;;;;;;5057643;28;20780;-34
2022/05/14 00:23:08;;;;;;;5.30;1.67;;;16.10;82.20;;;;;;5059171;28;20589;-34
2022/05/14 00:25:36;;;;;;;3.15;1.30;;;16.10;82.20;;;;;;5069094;28;20209;-34
2022/05/14 00:28:04;;;;;;;3.95;1.52;;;16.00;82.20;;;;;;5064998;28;20204;-34
2022/05/14 00:30:31;;;;;;;5.65;1.85;;;16.00;82.30;;;;;;5070182;28;20290;-34
2022/05/14 00:33:02;;;;;;;7.70;1.63;;;15.90;82.20;;;;;;5057552;28;20265;-34
2022/05/14 00:35:32;;;;;;;6.50;1.70;;;15.90;82.50;;;;;;5033870;28;20224;-34
2022/05/14 00:37:59;;;;;;;4.40;1.88;;;15.90;82.60;;;;;;5046514;28;20205;-34
2022/05/14 00:40:33;;;;;;;4.63;1.75;;;15.80;82.40;;;;;;5066172;28;20195;-34
2022/05/14 00:43:00;;;;;;;5.22;1.83;;;15.80;82.40;;;;;;5068958;28;20736;-33
2022/05/14 00:45:33;;;;;;;3.58;1.65;;;15.80;82.60;;;;;;5090968;28;20209;-34
2022/05/14 00:48:01;;;;;;;2.25;1.45;;;15.70;82.60;;;;;;5029211;28;20200;-34
2022/05/14 00:50:48;;;;;;;3.35;1.35;;;15.80;82.60;;;;;;5046618;28;20561;-34
2022/05/14 00:53:40;;;;;;;3.35;1.50;;;15.70;82.90;;;;;;5034138;28;20208;-34
2022/05/14 00:56:11;;;;;;;2.75;1.35;;;15.70;82.90;;;;;;5046511;28;20240;-33
2022/05/14 00:58:51;;;;;;;5.75;1.60;;;15.70;82.60;;;;;;5029736;28;20215;-34
2022/05/14 01:01:21;;;;;;;3.75;1.58;;;15.60;82.70;;;;;;5041765;28;20697;-34
2022/05/14 01:03:48;;;;;;;3.78;1.48;;;15.60;82.70;;;;;;5046042;28;20637;-34
2022/05/14 01:06:19;;;;;;;4.82;1.40;;;15.50;82.60;;;;;;5059220;28;20200;-34
2022/05/14 01:08:48;;;;;;;2.95;1.40;;;15.50;82.80;;;;;;5049351;28;20239;-34
2022/05/14 01:11:19;;;;;;;3.58;1.65;;;15.50;82.70;;;;;;5051341;28;20227;-33
2022/05/14 01:13:48;;;;;;;6.10;2.07;;;15.40;82.80;;;;;;5056768;28;20282;-33
2022/05/14 01:16:20;;;;;;;6.10;1.85;;;15.30;82.70;;;;;;5050419;28;20274;-35
2022/05/14 01:18:47;;;;;;;4.10;1.30;;;15.40;82.80;;;;;;5079753;28;20266;-33
2022/05/14 01:21:40;;;;;;;3.05;1.38;;;15.30;83.00;;;;;;5052562;28;20215;-35
2022/05/14 01:27:12;;;;;;;3.13;1.25;;;15.20;83.10;;;;;;5045005;28;20202;-36
2022/05/14 01:29:41;;;;;;;2.90;1.65;;;15.20;82.90;;;;;;5048443;28;20259;-35
2022/05/14 01:32:13;;;;;;;4.10;1.63;;;15.20;82.90;;;;;;5050516;28;20206;-35
2022/05/14 01:34:40;;;;;;;2.75;1.27;;;15.20;83.00;;;;;;5052325;28;20204;-35
2022/05/14 01:37:10;;;;;;;4.00;1.58;;;15.20;83.00;;;;;;5052784;28;20230;-35
2022/05/14 01:39:37;;;;;;;3.80;1.58;;;15.10;83.00;;;;;;5059027;28;20199;-34
2022/05/14 01:42:05;;;;;;;2.40;1.55;;;15.10;83.20;;;;;;5055059;28;20197;-35
2022/05/14 01:44:33;;;;;;;2.70;1.30;;;15.00;83.20;;;;;;5028629;28;20249;-35
2022/05/14 01:47:00;;;;;;;5.03;1.35;;;15.10;83.20;;;;;;5048571;28;20218;-35
2022/05/14 01:49:27;;;;;;;4.07;1.50;;;15.00;83.30;;;;;;5063809;28;20204;-35
2022/05/14 01:51:59;;;;;;;3.25;1.40;;;15.00;83.20;;;;;;5068296;28;20622;-35
2022/05/14 01:54:26;;;;;;;3.03;1.23;;;15.00;83.30;;;;;;5061324;28;20212;-35
2022/05/14 01:56:56;;;;;;;4.93;1.40;;;14.90;83.50;;;;;;5046502;28;20389;-35
2022/05/14 01:59:26;;;;;;;2.47;1.23;;;14.90;83.50;;;;;;5038129;28;20599;-35
2022/05/14 02:01:56;;;;;;;2.58;1.20;;;14.90;83.30;;;;;;5045718;28;20711;-35
2022/05/14 02:04:27;;;;;;;6.03;1.50;;;14.90;83.40;;;;;;5032846;28;20208;-36
2022/05/14 02:06:55;;;;;;;5.63;1.50;;;14.90;83.40;;;;;;5067973;28;20192;-36
2022/05/14 02:09:22;;;;;;;3.07;1.33;;;14.90;83.50;;;;;;5060541;28;20207;-35
2022/05/14 02:11:55;;;;;;;4.23;1.50;;;14.80;83.40;;;;;;5063013;28;20644;-35
2022/05/14 02:14:22;;;;;;;3.60;1.73;;;14.80;83.70;;;;;;5065967;28;20693;-35
2022/05/14 02:16:52;;;;;;;4.05;1.67;;;14.80;83.30;;;;;;5043593;28;20705;-35
2022/05/14 02:19:19;;;;;;;4.63;1.50;;;14.80;83.70;;;;;;5057231;28;20276;-35
2022/05/14 02:21:46;;;;;;;3.70;1.55;;;14.80;83.70;;;;;;5051732;28;20556;-35
2022/05/14 02:24:14;;;;;;;3.67;1.45;;;14.80;83.70;;;;;;5067473;28;20276;-35
2022/05/14 02:26:41;;;;;;;5.68;1.80;;;14.70;83.50;;;;;;5066805;28;20212;-35
2022/05/14 02:29:08;;;;;;;4.60;1.60;;;14.70;83.70;;;;;;5068215;28;20579;-36
2022/05/14 02:31:35;;;;;;;3.23;1.30;;;14.70;83.60;;;;;;5060076;28;20746;-34
2022/05/14 02:34:07;;;;;;;5.55;1.50;;;14.60;83.40;;;;;;5043335;28;20725;-33
2022/05/14 02:36:35;;;;;;;3.65;1.60;;;14.60;83.90;;;;;;5035108;28;20225;-34
2022/05/14 02:39:03;;;;;;;3.17;1.70;;;14.60;83.80;;;;;;5043614;28;20200;-33
2022/05/14 02:41:33;;;;;;;5.50;1.70;;;14.60;84.00;;;;;;5066243;28;20222;-34
2022/05/14 02:44:00;;;;;;;5.27;1.87;;;14.50;84.10;;;;;;5055464;28;20208;-34
2022/05/14 02:46:28;;;;;;;3.85;1.42;;;14.50;83.80;;;;;;5066466;28;20208;-33
2022/05/14 02:48:55;;;;;;;6.70;1.50;;;14.50;84.00;;;;;;5061205;28;20214;-34
2022/05/14 02:51:22;;;;;;;5.77;1.27;;;14.50;84.30;;;;;;5034595;28;20224;-34
2022/05/14 02:53:49;;;;;;;6.40;1.87;;;14.40;84.40;;;;;;5038086;28;20208;-33
2022/05/14 02:56:16;;;;;;;3.17;1.42;;;14.40;84.40;;;;;;5056286;28;20243;-34
2022/05/14 03:01:29;;;;;;;4.23;1.37;;;14.40;84.40;;;;;;5048965;28;20312;-35
2022/05/14 03:03:56;;;;;;;4.05;1.35;;;14.30;84.40;;;;;;5051659;28;20197;-35
2022/05/14 03:06:26;;;;;;;4.43;1.30;;;14.30;84.50;;;;;;5053214;28;20214;-35
2022/05/14 03:08:54;;;;;;;2.85;1.35;;;14.20;84.60;;;;;;5042307;28;20218;-35
2022/05/14 03:11:22;;;;;;;3.90;1.60;;;14.20;84.40;;;;;;5056271;28;20207;-35
2022/05/14 03:13:49;;;;;;;4.40;1.30;;;14.20;85.20;;;;;;5062734;28;20573;-35
2022/05/14 03:16:20;;;;;;;3.40;1.37;;;14.20;85.10;;;;;;5061568;28;20266;-35
2022/05/14 03:18:48;;;;;;;5.20;1.70;;;14.10;85.80;;;;;;5065364;28;20687;-35
2022/05/14 03:21:15;;;;;;;4.90;1.88;;;14.10;84.60;;;;;;5067456;28;20199;-35
2022/05/14 03:23:42;;;;;;;5.53;1.37;;;14.10;84.50;;;;;;5061560;28;20239;-35
2022/05/14 03:26:09;;;;;;;2.55;1.40;;;14.10;84.70;;;;;;5057917;28;20617;-35
2022/05/14 03:28:42;;;;;;;3.57;1.57;;;14.10;84.70;;;;;;5047939;28;20210;-35
2022/05/14 03:31:12;;;;;;;5.37;1.57;;;14.00;85.70;;;;;;5057738;28;20208;-33
2022/05/14 03:33:39;;;;;;;7.60;1.60;;;14.00;84.90;;;;;;5067380;28;20208;-33
2022/05/14 03:36:11;;;;;;;5.47;1.70;;;14.00;84.70;;;;;;5042648;28;20295;-33
2022/05/14 03:38:41;;;;;;;5.13;1.80;;;14.00;84.80;;;;;;5052944;28;20235;-35
2022/05/14 03:41:10;;;;;;;2.60;1.30;;;13.90;84.90;;;;;;5060462;28;20215;-35
2022/05/14 03:43:40;;;;;;;4.68;1.65;;;14.00;85.20;;;;;;5058121;28;20318;-35
2022/05/14 03:46:07;;;;;;;4.53;1.60;;;13.90;85.20;;;;;;5060738;28;20243;-35
2022/05/14 03:48:36;;;;;;;4.53;1.70;;;13.90;84.80;;;;;;5066031;28;20199;-35
2022/05/14 03:51:05;;;;;;;4.23;1.43;;;13.90;84.90;;;;;;5069739;28;20238;-38
2022/05/14 03:53:33;;;;;;;3.90;1.67;;;13.80;84.90;;;;;;5054417;28;20215;-33
2022/05/14 03:56:03;;;;;;;2.73;1.50;;;13.80;85.00;;;;;;5030142;28;20264;-34
2022/05/14 03:58:35;;;;;;;3.90;2.17;;;13.80;85.10;;;;;;5059836;28;20216;-33
2022/05/14 04:01:06;;;;;;;6.47;2.08;;;13.80;84.80;;;;;;5068737;28;20680;-33
2022/05/14 04:03:34;;;;;;;3.15;1.20;;;13.80;85.30;;;;;;5049612;28;20733;-34
2022/05/14 04:06:03;;;;;;;2.72;1.55;;;13.70;84.90;;;;;;5048075;28;20935;-34
2022/05/14 04:08:31;;;;;;;4.15;1.50;;;13.70;85.20;;;;;;5038437;28;20209;-34
2022/05/14 04:10:59;;;;;;;4.18;1.63;;;13.70;85.30;;;;;;5054128;28;20219;-34
2022/05/14 04:13:26;;;;;;;5.95;2.15;;;13.60;85.60;;;;;;5064790;28;20303;-33
2022/05/14 04:15:56;;;;;;;5.63;2.07;;;13.70;85.50;;;;;;5043762;28;20600;-33
2022/05/14 04:18:26;;;;;;;6.05;2.17;;;13.60;85.40;;;;;;5042486;28;20671;-33
2022/05/14 04:20:56;;;;;;;3.83;1.55;;;13.70;85.50;;;;;;5053878;28;20210;-33
2022/05/14 04:23:25;;;;;;;4.60;1.53;;;13.60;85.60;;;;;;5066765;28;20219;-33
2022/05/14 04:25:55;;;;;;;4.45;1.77;;;13.60;85.40;;;;;;5062911;28;20678;-34
2022/05/14 04:28:23;;;;;;;8.50;1.83;;;13.60;85.60;;;;;;5061734;28;20200;-34
2022/05/14 04:30:53;;;;;;;6.50;1.92;;;13.60;85.90;;;;;;5054362;28;20618;-34
2022/05/14 04:33:25;;;;;;;9.30;2.33;;;13.60;86.10;;;;;;5037551;28;20260;-34
2022/05/14 04:35:52;;;;;;;8.30;2.30;;;13.60;86.30;;;;;;5033165;28;20666;-34
2022/05/14 04:38:20;;;;;;;5.53;1.88;;;13.60;86.20;;;;;;5064918;28;20227;-34
2022/05/14 04:40:47;;;;;;;4.97;1.80;;;13.60;86.10;;;;;;5056794;28;20192;-34
2022/05/14 04:43:15;;;;;;;4.63;1.80;;;13.60;86.20;;;;;;5066160;28;20223;-35
2022/05/14 04:45:45;;;;;;;6.95;1.90;;;13.60;86.40;;;;;;5062114;28;20215;-36
2022/05/14 04:48:15;;;;;;;4.70;1.98;;;13.60;86.50;;;;;;5068442;28;20207;-34
2022/05/14 04:50:42;;;;;;;4.93;1.90;;;13.60;86.60;;;;;;5057848;28;20692;-33
2022/05/14 04:53:09;;;;;;;5.40;2.10;;;13.70;86.70;;;;;;5047157;28;20298;-33
2022/05/14 04:55:37;;;;;;;8.23;1.87;;;13.70;86.50;;;;;;5063532;28;20533;-33
2022/05/14 04:58:07;;;;;;;4.07;1.73;;;13.70;86.70;;;;;;5065508;28;20321;-35
2022/05/14 05:00:38;;;;;;;6.45;2.00;;;13.70;86.70;;;;;;5057830;28;20214;-35
2022/05/14 05:03:17;;;;;;;5.23;2.00;;;13.70;87.00;;;;;;5040225;28;20245;-33
2022/05/14 05:05:46;;;;;;;5.07;2.13;;;13.70;86.90;;;;;;5043017;28;20197;-33
2022/05/14 05:08:14;;;;;;;5.03;2.00;;;13.80;87.10;;;;;;5048276;28;20344;-34
2022/05/14 05:10:44;;;;;;;5.97;2.00;;;13.80;87.20;;;;;;5042812;28;20200;-33
2022/05/14 05:13:18;;;;;;;4.25;2.25;;;13.80;87.20;;;;;;5034722;28;20239;-33
2022/05/14 05:15:45;;;;;;;5.38;2.22;;;13.90;87.50;;;;;;5048379;28;20200;-33
2022/05/14 05:18:19;;;;;;;7.35;2.10;;;13.90;87.30;;;;;;5050948;28;20230;-34
2022/05/14 05:20:52;;;;;;;6.32;2.15;;;13.90;87.40;;;;;;5049122;28;20195;-33
2022/05/14 05:23:22;;;;;;;5.80;2.10;;;13.90;87.40;;;;;;5042909;28;20196;-33
2022/05/14 05:25:50;;;;;;;6.13;2.10;;;14.00;87.50;;;;;;5056372;28;20194;-33
2022/05/14 05:28:22;;;;;;;5.77;2.00;;;14.00;87.50;;;;;;5047924;28;20227;-33
2022/05/14 05:30:50;;;;;;;6.37;2.33;;;14.00;87.60;;;;;;5054877;28;20709;-33
2022/05/14 05:33:20;;;;;;;5.97;2.30;;;14.10;87.50;;;;;;5052435;28;20204;-36
2022/05/14 05:35:50;;;;;;;6.05;2.38;;;14.10;87.80;;;;;;5056974;28;20238;-35
2022/05/14 05:38:20;;;;;;;7.90;2.20;;;14.10;87.90;;;;;;5045343;28;20224;-34
2022/05/14 05:40:51;;;;;;;4.57;2.30;;;14.20;87.90;;;;;;5054219;28;20199;-33
2022/05/14 05:43:19;;;;;;;11.65;2.97;;;14.20;88.80;;;;;;5052393;28;20224;-35
2022/05/14 05:45:49;;;;;;;8.15;2.92;;;14.20;87.90;;;;;;5049628;28;20208;-35
2022/05/14 05:48:17;;;;;;;7.75;2.58;;;14.30;88.00;;;;;;5049387;28;20238;-33
2022/05/14 05:50:48;;;;;;;7.22;2.60;;;14.30;88.30;;;;;;5060434;28;20557;-33
2022/05/14 05:53:16;;;;;;;6.97;2.17;;;14.30;88.40;;;;;;5048466;28;20216;-36
2022/05/14 05:58:32;;;;;;;5.80;2.60;;;14.40;88.70;;;;;;5055024;28;20227;-36
2022/05/14 06:01:01;;;;;;;3.95;2.17;;;14.40;88.60;;;;;;5034761;28;20223;-35
2022/05/14 06:03:33;;;;;;;5.05;2.17;;;14.40;88.80;;;;;;5046477;28;20205;-35
2022/05/14 06:06:03;;;;;;;7.05;2.58;;;14.50;88.80;;;;;;5044053;28;20214;-35
2022/05/14 06:08:30;;;;;;;4.78;2.53;;;14.50;88.80;;;;;;5055944;28;20211;-35
2022/05/14 06:10:57;;;;;;;6.53;2.45;;;14.50;88.80;;;;;;5060490;28;20315;-35
2022/05/14 06:13:25;;;;;;;8.98;2.55;;;14.60;89.00;;;;;;5026678;28;20552;-35
2022/05/14 06:15:52;;;;;;;8.43;2.47;;;14.60;89.00;;;;;;5037300;28;20632;-35
2022/05/14 06:18:20;;;;;;;3.27;1.77;;;14.60;88.90;;;;;;5050614;28;20241;-35
2022/05/14 06:20:47;;;;;;;4.00;2.20;;;14.60;89.00;;;;;;5051986;28;20236;-35
2022/05/14 06:23:14;;;;;;;6.45;2.55;;;14.70;89.10;;;;;;5047218;28;20196;-35
2022/05/14 06:25:44;;;;;;;4.97;2.20;;;14.70;89.30;;;;;;5053690;28;20200;-35
2022/05/14 06:28:13;;;;;;;4.63;2.37;;;14.70;89.40;;;;;;5056021;28;20588;-35
2022/05/14 06:30:43;;;;;;;6.15;2.42;;;14.80;89.40;;;;;;5036509;28;20212;-35
2022/05/14 06:33:13;;;;;;;8.40;2.72;;;14.80;89.60;;;;;;5050534;28;20250;-35
2022/05/14 06:35:43;;;;;;;5.10;2.90;;;14.80;89.90;;;;;;5037001;28;20615;-36
2022/05/14 06:38:10;;;;;;;7.47;2.70;;;14.90;90.00;;;;;;5051089;28;20347;-34
2022/05/14 06:40:41;;;;;;;5.95;2.40;;;14.90;89.90;;;;;;5047360;28;20948;-34
2022/05/14 06:43:10;;;;;;;4.85;2.42;;;15.00;90.00;;;;;;5047123;28;22061;-34
2022/05/14 06:45:40;;;;;;;6.00;2.53;;;15.00;90.00;;;;;;5059737;28;20235;-34
2022/05/14 06:48:07;;;;;;;7.30;2.80;;;15.10;90.10;;;;;;5045012;28;20204;-35
2022/05/14 06:50:41;;;;;;;6.65;2.63;;;15.10;90.10;;;;;;5045769;28;20200;-36
2022/05/14 06:53:12;;;;;;;5.25;2.60;;;15.10;90.20;;;;;;5042658;28;20215;-36
2022/05/14 06:55:41;;;;;;;4.80;2.17;;;15.10;90.20;;;;;;5042990;28;20237;-35
2022/05/14 06:58:13;;;;;;;7.00;2.50;;;15.20;90.30;;;;;;5059338;28;20702;-36
2022/05/14 07:00:40;;;;;;;5.25;2.63;;;15.20;90.30;;;;;;5067055;28;20204;-37
2022/05/14 07:08:44;;;;;;;6.63;2.67;;;15.40;90.40;;;;;;5043685;28;20236;-36
2022/05/14 07:11:16;;;;;;;8.93;3.20;;;15.50;90.50;;;;;;5043512;28;20212;-36
2022/05/14 07:13:46;;;;;;;6.63;2.90;;;15.50;90.50;;;;;;5054217;28;20308;-35
2022/05/14 07:16:14;;;;;;;8.68;2.63;;;15.50;90.60;;;;;;5054604;28;20208;-35
2022/05/14 07:18:42;;;;;;;8.10;3.08;;;15.60;90.60;;;;;;5069548;28;20227;-35
2022/05/14 07:21:09;;;;;;;7.30;2.55;;;15.70;90.70;;;;;;5069234;28;20262;-34
2022/05/14 07:23:36;;;;;;;8.10;2.83;;;15.80;90.80;;;;;;5033119;28;20208;-35
2022/05/14 07:26:06;;;;;;;8.75;3.13;;;15.80;90.80;;;;;;5038188;28;20207;-35
2022/05/14 07:28:34;;;;;;;7.82;2.97;;;15.90;90.90;;;;;;5059573;28;20315;-35
2022/05/14 07:31:02;;;;;;;9.23;3.10;;;16.00;91.00;;;;;;5050125;28;20574;-35
2022/05/14 07:33:31;;;;;;;8.68;2.88;;;16.00;91.00;;;;;;5034936;28;20201;-35
2022/05/14 07:36:13;;;;;;;7.95;3.15;;;16.10;91.10;;;;;;5047141;28;20265;-35
2022/05/14 07:38:41;;;;;;;8.57;3.20;;;16.20;91.20;;;;;;5055894;28;20255;-35
2022/05/14 07:41:11;;;;;;;6.10;2.60;;;16.30;91.20;;;;;;5045288;28;20259;-35
2022/05/14 07:43:41;;;;;;;7.07;3.17;;;16.30;91.30;;;;;;5042801;28;20200;-35
2022/05/14 07:46:13;;;;;;;8.25;2.58;;;16.40;91.30;;;;;;5045505;28;20203;-35
2022/05/14 07:48:41;;;;;;;6.90;3.05;;;16.50;91.30;;;;;;5050047;28;20273;-37
2022/05/14 07:51:11;;;;;;;6.72;2.67;;;16.60;91.40;;;;;;5050233;28;20205;-37
2022/05/14 07:53:38;;;;;;;8.90;3.08;;;16.70;91.50;;;;;;5051438;28;20222;-37
2022/05/14 07:56:10;;;;;;;7.40;2.50;;;16.70;91.50;;;;;;5048769;28;20244;-36
2022/05/14 07:58:39;;;;;;;7.57;2.33;;;16.80;91.60;;;;;;5030643;28;20224;-37
2022/05/14 08:01:12;;;;;;;10.98;3.28;;;16.90;91.70;;;;;;5043287;28;20204;-37
2022/05/14 08:03:42;;;;;;;11.05;3.03;;;17.00;91.70;;;;;;5040456;28;20315;-36
2022/05/14 08:06:11;;;;;;;9.27;2.88;;;17.00;91.80;;;;;;5063359;28;20277;-38
2022/05/14 08:08:41;;;;;;;7.75;2.72;;;17.20;91.90;;;;;;5068254;28;20769;-36
2022/05/14 08:11:08;;;;;;;7.47;3.05;;;17.20;91.90;;;;;;5061191;28;20224;-36
2022/05/14 08:13:38;;;;;;;7.72;2.85;;;17.30;91.90;;;;;;5048727;28;20227;-36
2022/05/14 08:16:08;;;;;;;8.30;2.90;;;17.30;91.90;;;;;;5066717;28;20195;-36
2022/05/14 08:18:38;;;;;;;9.52;2.92;;;17.40;92.00;;;;;;5041726;28;20228;-36
2022/05/14 08:26:42;;;;;;;10.35;3.20;;;17.50;92.10;;;;;;5054570;28;20285;-36
2022/05/14 08:29:09;;;;;;;5.93;2.65;;;17.60;92.20;;;;;;5048377;28;20216;-36
2022/05/14 08:31:40;;;;;;;7.38;2.55;;;17.70;92.20;;;;;;5047397;28;20203;-36
2022/05/14 08:34:10;;;;;;;7.22;2.95;;;17.70;92.20;;;;;;5049483;28;20587;-36
2022/05/14 08:36:38;;;;;;;9.77;2.70;;;17.80;92.30;;;;;;5044407;28;20216;-37
2022/05/14 08:39:05;;;;;;;13.23;3.50;;;17.80;92.20;;;;;;5054059;28;20921;-36
2022/05/14 08:41:37;;;;;;;7.43;2.28;;;17.90;92.30;;;;;;5053211;28;20286;-37
2022/05/14 08:44:09;;;;;;;5.78;2.45;;;18.00;92.40;;;;;;5047422;28;20204;-36
2022/05/14 08:46:40;;;;;;;6.65;2.95;;;18.00;92.40;;;;;;5053292;28;20226;-36
2022/05/14 08:49:16;;;;;;;9.98;2.35;;;18.00;92.40;;;;;;5059145;28;20207;-37
2022/05/14 08:51:49;;;;;;;8.00;2.85;;;18.10;92.40;;;;;;5036241;28;20243;-36
2022/05/14 08:54:20;;;;;;;8.68;2.40;;;18.20;92.50;;;;;;5036788;28;20217;-37
2022/05/14 08:57:11;;;;;;;8.07;2.85;;;18.20;92.50;;;;;;5059292;28;20624;-34
2022/05/14 08:59:52;;;;;;;7.53;2.85;;;18.30;92.60;;;;;;5040173;28;20228;-34
2022/05/14 09:02:32;;;;;;;6.60;2.55;;;18.40;92.60;;;;;;5041817;28;20264;-34
2022/05/14 09:05:17;;;;;;;8.30;2.80;;;18.40;92.50;;;;;;5064649;28;20294;-35
2022/05/14 09:07:50;;;;;;;7.45;2.75;;;18.40;92.60;;;;;;5043151;28;20201;-34
2022/05/14 09:10:23;;;;;;;9.30;2.58;;;18.50;92.60;;;;;;5046814;28;20306;-35
2022/05/14 09:12:57;;;;;;;11.38;3.00;;;18.60;92.60;;;;;;5053004;28;20227;-35
2022/05/14 09:15:30;;;;;;;8.10;2.53;;;18.60;92.60;;;;;;5052048;28;20207;-34
2022/05/14 09:18:18;;;;;;;6.78;2.47;;;18.60;92.60;;;;;;5052796;28;20218;-36
2022/05/14 09:20:50;;;;;;;8.60;2.58;;;18.60;92.60;;;;;;5049530;28;20287;-36
2022/05/14 09:23:44;;;;;;;6.40;2.83;;;18.70;92.60;;;;;;5035889;28;20607;-35
2022/05/14 09:26:20;;;;;;;8.75;2.30;;;18.80;92.70;;;;;;5048643;28;20705;-34
2022/05/14 09:28:54;;;;;;;8.20;3.08;;;18.80;92.70;;;;;;5060532;28;20199;-34
2022/05/14 09:31:26;;;;;;;8.38;2.50;;;18.90;92.70;;;;;;5053588;28;20685;-35
2022/05/14 09:34:22;;;;;;;8.52;2.33;;;18.90;92.70;;;;;;5048745;28;20299;-34
2022/05/14 09:36:52;;;;;;;8.43;3.13;;;19.00;92.80;;;;;;5063242;28;20207;-35
2022/05/14 09:39:21;;;;;;;9.30;2.67;;;19.10;92.80;;;;;;5044024;28;20232;-35
2022/05/14 09:41:53;;;;;;;9.90;2.90;;;19.10;92.90;;;;;;5055725;28;20299;-35
2022/05/14 09:44:26;;;;;;;6.40;2.42;;;19.20;92.90;;;;;;5029162;28;20674;-35
2022/05/14 09:47:14;;;;;;;7.50;2.60;;;19.20;92.80;;;;;;5048243;28;20215;-36
2022/05/14 09:49:59;;;;;;;5.55;2.85;;;19.40;92.90;;;;;;5048664;28;20260;-34
2022/05/14 09:52:30;;;;;;;6.15;2.25;;;19.40;92.90;;;;;;5031601;28;20507;-35
2022/05/14 09:54:58;;;;;;;6.40;2.60;;;19.40;92.70;;;;;;5056093;28;20630;-35
2022/05/14 09:57:38;;;;;;;7.78;2.20;;;19.40;92.80;;;;;;5055443;28;20247;-34
2022/05/14 10:00:30;;;;;;;5.60;2.00;;;19.50;92.90;;;;;;5047141;28;20540;-34
2022/05/14 10:03:31;;;;;;;6.65;2.20;;;19.50;92.90;;;;;;5040061;28;20222;-34
2022/05/14 10:06:01;;;;;;;7.68;2.05;;;19.50;92.90;;;;;;5052273;28;20749;-34
2022/05/14 10:09:06;;;;;;;6.95;2.33;;;19.60;92.90;;;;;;5047304;28;20219;-33
2022/05/14 10:11:44;;;;;;;6.90;2.05;;;19.60;92.90;;;;;;5045033;28;20689;-34
2022/05/14 10:14:23;;;;;;;7.50;2.30;;;19.70;93.00;;;;;;5037401;28;20246;-34
2022/05/14 10:17:04;;;;;;;10.25;3.05;;;19.80;93.00;;;;;;5045285;28;20264;-36
2022/05/14 10:19:59;;;;;;;8.40;3.22;;;19.80;93.00;;;;;;5054340;28;20223;-34
2022/05/14 10:29:08;;;;;;;8.85;2.90;;;19.90;93.00;;;;;;5052798;28;20205;-35
2022/05/14 10:31:57;;;;;;;5.53;2.30;;;20.00;93.10;;;;;;5056692;28;20261;-36
2022/05/14 10:34:39;;;;;;;7.28;2.40;;;20.00;93.10;;;;;;5031483;28;20295;-35
2022/05/14 10:37:21;;;;;;;9.25;2.85;;;20.10;93.10;;;;;;5056599;28;20697;-34
2022/05/14 10:40:23;;;;;;;7.75;2.70;;;20.20;93.20;;;;;;5054956;28;20230;-34
2022/05/14 10:42:54;;;;;;;7.57;2.85;;;20.30;93.30;;;;;;5040913;28;20195;-34
2022/05/14 10:45:33;;;;;;;6.40;2.55;;;20.30;93.20;;;;;;5034693;28;20227;-35
2022/05/14 10:48:06;;;;;;;8.30;2.60;;;20.40;93.30;;;;;;5057983;28;20203;-35
2022/05/14 10:50:34;;;;;;;6.47;2.55;;;20.50;93.40;;;;;;5034255;28;20226;-34
2022/05/14 10:53:08;;;;;;;6.32;2.20;;;20.50;93.40;;;;;;5033149;28;20228;-33
2022/05/14 10:55:45;;;;;;;7.93;2.65;;;20.60;93.30;;;;;;5026258;28;20248;-36
2022/05/14 10:58:35;;;;;;;6.78;2.47;;;20.60;93.40;;;;;;5052456;28;20415;-35
2022/05/14 11:01:06;;;;;;;7.90;2.92;;;20.70;93.40;;;;;;5039516;28;20322;-37
2022/05/14 11:03:40;;;;;;;11.27;2.80;;;20.70;93.40;;;;;;5052681;28;20680;-35
2022/05/14 11:06:12;;;;;;;7.47;2.53;;;20.80;93.50;;;;;;5052700;28;20207;-34
2022/05/14 11:08:45;;;;;;;6.07;2.15;;;20.80;93.50;;;;;;5056943;28;20211;-34
2022/05/14 11:11:31;;;;;;;5.82;2.55;;;20.90;93.60;;;;;;5060302;28;20203;-34
2022/05/14 11:14:06;;;;;;;11.23;3.40;;;20.90;93.40;;;;;;5059271;28;20200;-34
2022/05/14 11:16:43;;;;;;;7.20;2.70;;;20.90;93.40;;;;;;5062133;28;20606;-34
2022/05/14 11:19:24;;;;;;;7.82;2.70;;;20.90;93.40;;;;;;5059210;28;20227;-34
2022/05/14 11:21:51;;;;;;;12.25;3.05;;;21.00;93.50;;;;;;5047173;28;20218;-36
2022/05/14 11:24:44;;;;;;;7.40;2.45;;;21.10;93.50;;;;;;5051057;28;20207;-34
2022/05/14 11:27:15;;;;;;;4.63;2.10;;;21.10;93.60;;;;;;5027119;28;20205;-35
2022/05/14 11:29:52;;;;;;;11.02;3.22;;;21.20;93.60;;;;;;5040050;28;20208;-35
2022/05/14 11:32:24;;;;;;;7.13;2.70;;;21.20;93.50;;;;;;5032586;28;20240;-36
2022/05/14 11:34:56;;;;;;;7.65;2.60;;;21.30;93.60;;;;;;5039949;28;20609;-35
2022/05/14 11:37:43;;;;;;;7.53;2.50;;;21.30;93.70;;;;;;5027865;28;20723;-35
2022/05/14 11:40:19;;;;;;;6.03;2.35;;;21.40;93.70;;;;;;5042330;28;20243;-34
2022/05/14 11:42:52;;;;;;;6.80;2.63;;;21.50;93.70;;;;;;5046844;28;20218;-35
2022/05/14 11:45:23;;;;;;;9.88;3.00;;;21.50;93.40;;;;;;5026216;28;20213;-35
2022/05/14 11:48:06;;;;;;;6.28;2.60;;;21.50;93.20;;;;;;5031527;28;20208;-35
2022/05/14 11:50:47;;;;;;;9.27;2.95;;;21.50;93.10;;;;;;5031836;28;20300;-35
2022/05/14 11:53:32;;;;;;;9.02;3.03;;;21.60;93.10;;;;;;5058200;28;20215;-35
2022/05/14 11:56:06;;;;;;;7.88;2.85;;;21.60;93.20;;;;;;5052601;28;20238;-35
2022/05/14 11:58:42;;;;;;;6.72;2.35;;;21.60;93.20;;;;;;5032565;28;20251;-35
2022/05/14 12:01:14;;;;;;;11.15;2.92;;;21.60;93.30;;;;;;5040257;28;20212;-35
2022/05/14 12:03:48;;;;;;;7.45;2.67;;;21.60;93.10;;;;;;5037593;28;20586;-35
2022/05/14 12:06:41;;;;;;;7.75;2.80;;;21.60;93.20;;;;;;5055104;28;20206;-37
2022/05/14 12:09:26;;;;;;;8.38;2.65;;;21.60;93.20;;;;;;5037321;28;20205;-36
2022/05/14 12:12:12;;;;;;;8.75;3.08;;;21.70;93.20;;;;;;5030693;28;20303;-35
2022/05/14 12:14:42;;;;;;;6.22;2.97;;;21.70;93.30;;;;;;5034331;28;20204;-36
2022/05/14 12:17:16;;;;;;;6.18;2.97;;;21.80;93.30;;;;;;5029892;28;20267;-36
2022/05/14 12:19:45;;;;;;;8.20;2.63;;;21.80;93.30;;;;;;5028594;28;20223;-35
2022/05/14 12:22:15;;;;;;;8.75;2.97;;;21.90;93.50;;;;;;5044032;28;20204;-35
2022/05/14 12:25:05;;;;;;;7.25;3.15;;;21.90;93.10;;;;;;5032979;28;20208;-34
2022/05/14 12:27:46;;;;;;;7.75;3.20;;;21.90;93.20;;;;;;5039048;28;20291;-34
2022/05/14 12:33:18;;;;;;;11.35;3.38;;;22.00;92.90;;;;;;5042824;28;20280;-36
2022/05/14 12:35:57;;;;;;;7.53;2.47;;;22.00;92.90;;;;;;5027406;28;20689;-35
2022/05/14 12:38:36;;;;;;;7.15;2.80;;;22.00;93.00;;;;;;5059265;28;20199;-36
2022/05/14 12:41:07;;;;;;;7.00;2.60;;;22.00;92.30;;;;;;5040788;28;20208;-36
2022/05/14 12:43:35;;;;;;;8.05;2.92;;;22.10;92.10;;;;;;5046705;28;20200;-34
2022/05/14 12:46:11;;;;;;;9.95;3.28;;;22.20;92.00;;;;;;5043853;28;20216;-34
2022/05/14 12:48:51;;;;;;;8.65;2.83;;;22.20;91.70;;;;;;5034601;28;20279;-34
2022/05/14 12:51:21;;;;;;;4.88;2.40;;;22.20;92.30;;;;;;5031711;28;20200;-37
2022/05/14 12:53:52;;;;;;;5.28;2.13;;;22.20;91.90;;;;;;5039842;28;20220;-36
2022/05/14 12:56:29;;;;;;;8.32;2.47;;;22.30;92.30;;;;;;5032478;28;20228;-36
2022/05/14 12:58:56;;;;;;;6.35;2.30;;;22.30;92.50;;;;;;5046294;28;20215;-36
2022/05/14 13:01:31;;;;;;;4.85;1.90;;;22.30;92.50;;;;;;5046359;28;20659;-36
2022/05/14 13:04:04;;;;;;;6.00;2.17;;;22.40;92.60;;;;;;5040089;28;20227;-36
2022/05/14 13:06:34;;;;;;;6.80;2.35;;;22.50;92.70;;;;;;5026781;28;20270;-36
2022/05/14 13:09:07;;;;;;;8.27;2.95;;;22.50;92.80;;;;;;5025672;28;20266;-36
2022/05/14 13:11:37;;;;;;;11.50;3.38;;;22.60;92.30;;;;;;5026193;28;20249;-36
2022/05/14 13:14:21;;;;;;;7.90;3.33;;;22.60;92.30;;;;;;5028480;28;20810;-35
2022/05/14 13:17:04;;;;;;;7.53;3.25;;;22.70;92.00;;;;;;5030728;28;20836;-35
2022/05/14 13:19:41;;;;;;;7.88;2.38;;;22.70;92.00;;;;;;5029504;28;20233;-35
2022/05/14 13:22:31;;;;;;;6.25;2.45;;;22.70;92.40;;;;;;5043722;28;20684;-35
2022/05/14 13:25:03;;;;;;;5.82;2.60;;;22.70;92.50;;;;;;5042264;28;20627;-35
2022/05/14 13:27:34;;;;;;;6.72;2.42;;;22.70;92.60;;;;;;5051014;28;20189;-35
2022/05/14 13:30:15;;;;;;;8.43;2.55;;;22.80;92.60;;;;;;5028279;28;20209;-35
2022/05/14 13:32:44;;;;;;;7.45;2.83;;;22.90;92.80;;;;;;5048504;28;20203;-37
2022/05/14 13:38:11;;;;;;;8.23;2.90;;;23.00;92.70;;;;;;5034877;28;20205;-34
2022/05/14 13:40:45;;;;;;;6.18;2.20;;;23.10;92.60;;;;;;5028938;28;20228;-37
2022/05/14 13:43:34;;;;;;;9.38;3.15;;;23.20;92.70;;;;;;5040050;28;20292;-35